sensor_id;sensor_type;location;lat;lon;timestamp;pressure;altitude;pressure_sealevel;temperature;humidity
77043;BME280;65975;53.936;27.540;2023-02-07T00:00:18;100848.94;;;0.48;75.00
77043;BME280;65975;53.936;27.540;2023-02-07T00:02:45;100848.94;;;0.70;74.26
77043;BME280;65975;53.936;27.540;2023-02-07T00:05:11;100862.19;;;0.57;73.75
77043;BME280;65975;53.936;27.540;2023-02-07T00:07:37;100852.59;;;0.76;73.79
77043;BME280;65975;53.936;27.540;2023-02-07T00:10:04;100842.56;;;0.84;73.66
77043;BME280;65975;53.936;27.540;2023-02-07T00:12:30;100837.34;;;0.83;73.22
77043;BME280;65975;53.936;27.540;2023-02-07T00:14:56;100748.69;;;0.08;73.67
77043;BME280;65975;53.936;27.540;2023-02-07T00:17:21;100823.03;;;0.67;73.94
77043;BME280;65975;53.936;27.540;2023-02-07T00:19:47;100849.81;;;0.70;73.96
77043;BME280;65975;53.936;27.540;2023-02-07T00:22:13;100776.38;;;0.13;74.40
77043;BME280;65975;53.936;27.540;2023-02-07T00:24:38;100843.94;;;0.74;74.52
77043;BME280;65975;53.936;27.540;2023-02-07T00:27:04;100834.72;;;0.35;75.49
77043;BME280;65975;53.936;27.540;2023-02-07T00:29:29;100850.56;;;0.68;74.63
77043;BME280;65975;53.936;27.540;2023-02-07T00:31:57;100848.06;;;0.69;73.76
77043;BME280;65975;53.936;27.540;2023-02-07T00:34:23;100855.88;;;0.72;74.01
77043;BME280;65975;53.936;27.540;2023-02-07T00:36:48;100753.06;;;0.32;74.06
77043;BME280;65975;53.936;27.540;2023-02-07T00:39:15;100843.66;;;0.67;74.13
77043;BME280;65975;53.936;27.540;2023-02-07T00:41:42;100843.19;;;0.55;74.38
77043;BME280;65975;53.936;27.540;2023-02-07T00:44:08;100847.00;;;0.64;74.48
77043;BME280;65975;53.936;27.540;2023-02-07T00:46:34;100813.47;;;0.40;74.40
77043;BME280;65975;53.936;27.540;2023-02-07T00:49:00;100829.88;;;0.66;74.22
77043;BME280;65975;53.936;27.540;2023-02-07T00:51:26;100690.34;;;-0.38;74.71
77043;BME280;65975;53.936;27.540;2023-02-07T00:53:55;100842.53;;;0.60;74.03
77043;BME280;65975;53.936;27.540;2023-02-07T00:56:23;100810.94;;;0.64;73.33
77043;BME280;65975;53.936;27.540;2023-02-07T00:58:49;100829.16;;;0.47;74.41
77043;BME280;65975;53.936;27.540;2023-02-07T01:01:15;100829.41;;;0.08;75.35
77043;BME280;65975;53.936;27.540;2023-02-07T01:03:41;100830.78;;;-0.02;76.44
77043;BME280;65975;53.936;27.540;2023-02-07T01:06:07;100837.97;;;0.29;75.92
77043;BME280;65975;53.936;27.540;2023-02-07T01:08:33;100855.25;;;0.32;75.09
77043;BME280;65975;53.936;27.540;2023-02-07T01:11:06;100830.38;;;0.32;75.10
77043;BME280;65975;53.936;27.540;2023-02-07T01:13:32;100831.91;;;0.51;73.96
77043;BME280;65975;53.936;27.540;2023-02-07T01:15:58;100819.59;;;-0.02;75.05
77043;BME280;65975;53.936;27.540;2023-02-07T01:18:24;100835.75;;;0.38;74.62
77043;BME280;65975;53.936;27.540;2023-02-07T01:20:49;100846.06;;;0.38;74.60
77043;BME280;65975;53.936;27.540;2023-02-07T01:23:15;100842.69;;;0.41;74.20
77043;BME280;65975;53.936;27.540;2023-02-07T01:25:41;100842.53;;;0.36;74.62
77043;BME280;65975;53.936;27.540;2023-02-07T01:28:10;100852.25;;;0.21;74.62
77043;BME280;65975;53.936;27.540;2023-02-07T01:30:38;100861.59;;;0.42;74.16
77043;BME280;65975;53.936;27.540;2023-02-07T01:33:04;100862.19;;;0.57;74.36
77043;BME280;65975;53.936;27.540;2023-02-07T01:35:29;100860.50;;;0.57;73.82
77043;BME280;65975;53.936;27.540;2023-02-07T01:37:55;100796.59;;;0.03;73.22
77043;BME280;65975;53.936;27.540;2023-02-07T01:40:23;100829.88;;;-0.02;74.29
77043;BME280;65975;53.936;27.540;2023-02-07T01:42:51;100870.22;;;0.64;73.46
77043;BME280;65975;53.936;27.540;2023-02-07T01:47:57;100849.59;;;0.42;73.26
77043;BME280;65975;53.936;27.540;2023-02-07T01:50:25;100836.28;;;0.54;72.42
77043;BME280;65975;53.936;27.540;2023-02-07T01:52:51;100848.06;;;0.69;73.13
77043;BME280;65975;53.936;27.540;2023-02-07T01:55:23;100853.41;;;0.52;73.59
77043;BME280;65975;53.936;27.540;2023-02-07T01:57:49;100841.34;;;0.51;73.40
77043;BME280;65975;53.936;27.540;2023-02-07T02:00:16;100840.16;;;0.65;73.22
77043;BME280;65975;53.936;27.540;2023-02-07T02:02:42;100844.09;;;0.55;72.78
77043;BME280;65975;53.936;27.540;2023-02-07T02:05:10;100846.06;;;0.62;73.33
77043;BME280;65975;53.936;27.540;2023-02-07T02:07:37;100838.31;;;0.38;73.33
77043;BME280;65975;53.936;27.540;2023-02-07T02:16:13;100840.03;;;0.39;72.54
77043;BME280;65975;53.936;27.540;2023-02-07T02:22:10;100773.13;;;0.17;73.21
77043;BME280;65975;53.936;27.540;2023-02-07T02:31:01;100837.25;;;0.33;73.75
77043;BME280;65975;53.936;27.540;2023-02-07T02:39:22;100838.53;;;0.22;73.82
77043;BME280;65975;53.936;27.540;2023-02-07T02:44:48;100841.06;;;0.21;73.90
77043;BME280;65975;53.936;27.540;2023-02-07T02:47:17;100765.91;;;-0.36;74.37
77043;BME280;65975;53.936;27.540;2023-02-07T02:49:44;100843.84;;;0.25;74.09
77043;BME280;65975;53.936;27.540;2023-02-07T02:52:10;100841.94;;;0.21;73.50
77043;BME280;65975;53.936;27.540;2023-02-07T02:54:38;100839.81;;;0.33;73.18
77043;BME280;65975;53.936;27.540;2023-02-07T03:05:29;100851.06;;;0.13;73.53
77043;BME280;65975;53.936;27.540;2023-02-07T03:08:03;100850.38;;;0.17;73.42
77043;BME280;65975;53.936;27.540;2023-02-07T03:10:43;100861.00;;;0.26;73.49
77043;BME280;65975;53.936;27.540;2023-02-07T03:21:36;100868.28;;;0.36;72.41
77043;BME280;65975;53.936;27.540;2023-02-07T03:24:25;100875.34;;;0.20;73.28
77043;BME280;65975;53.936;27.540;2023-02-07T03:26:53;100875.31;;;0.18;73.33
77043;BME280;65975;53.936;27.540;2023-02-07T03:29:22;100867.59;;;0.18;72.90
77043;BME280;65975;53.936;27.540;2023-02-07T03:31:51;100872.78;;;-0.03;74.33
77043;BME280;65975;53.936;27.540;2023-02-07T03:34:21;100874.38;;;-0.27;74.22
77043;BME280;65975;53.936;27.540;2023-02-07T03:36:53;100886.72;;;-0.18;74.98
77043;BME280;65975;53.936;27.540;2023-02-07T03:39:19;100886.41;;;-0.05;74.11
77043;BME280;65975;53.936;27.540;2023-02-07T03:41:50;100859.59;;;-0.10;73.69
77043;BME280;65975;53.936;27.540;2023-02-07T03:44:20;100873.31;;;0.11;72.64
77043;BME280;65975;53.936;27.540;2023-02-07T03:46:48;100893.69;;;0.27;72.92
77043;BME280;65975;53.936;27.540;2023-02-07T03:49:14;100873.75;;;0.44;72.33
77043;BME280;65975;53.936;27.540;2023-02-07T03:51:45;100887.03;;;0.32;73.41
77043;BME280;65975;53.936;27.540;2023-02-07T03:54:10;100894.78;;;0.32;73.06
77043;BME280;65975;53.936;27.540;2023-02-07T03:56:36;100919.34;;;0.24;73.48
77043;BME280;65975;53.936;27.540;2023-02-07T03:59:02;100875.19;;;-0.07;73.85
77043;BME280;65975;53.936;27.540;2023-02-07T04:01:28;100924.56;;;0.26;73.91
77043;BME280;65975;53.936;27.540;2023-02-07T04:03:53;100902.78;;;0.18;74.35
77043;BME280;65975;53.936;27.540;2023-02-07T04:06:19;100927.56;;;0.16;74.01
77043;BME280;65975;53.936;27.540;2023-02-07T04:08:45;100774.09;;;-0.46;73.81
77043;BME280;65975;53.936;27.540;2023-02-07T04:11:10;100907.22;;;0.22;73.41
77043;BME280;65975;53.936;27.540;2023-02-07T04:13:36;100747.28;;;-0.73;73.62
77043;BME280;65975;53.936;27.540;2023-02-07T04:16:03;100908.03;;;0.21;74.25
77043;BME280;65975;53.936;27.540;2023-02-07T04:18:29;100887.53;;;0.02;75.02
77043;BME280;65975;53.936;27.540;2023-02-07T04:21:03;100897.25;;;-0.12;75.40
77043;BME280;65975;53.936;27.540;2023-02-07T04:23:29;100769.78;;;-0.68;74.57
77043;BME280;65975;53.936;27.540;2023-02-07T04:25:55;100916.66;;;0.00;75.00
77043;BME280;65975;53.936;27.540;2023-02-07T04:28:21;100922.91;;;-0.15;76.33
77043;BME280;65975;53.936;27.540;2023-02-07T04:30:46;100905.25;;;-0.27;76.28
77043;BME280;65975;53.936;27.540;2023-02-07T04:33:12;100936.28;;;-0.03;75.72
77043;BME280;65975;53.936;27.540;2023-02-07T04:35:37;100930.25;;;-0.04;76.46
77043;BME280;65975;53.936;27.540;2023-02-07T04:38:03;100928.84;;;0.05;75.69
77043;BME280;65975;53.936;27.540;2023-02-07T04:40:28;100947.94;;;-0.11;75.54
77043;BME280;65975;53.936;27.540;2023-02-07T04:42:53;100943.66;;;-0.11;75.27
77043;BME280;65975;53.936;27.540;2023-02-07T04:45:19;100927.97;;;-0.17;74.71
77043;BME280;65975;53.936;27.540;2023-02-07T04:47:44;100957.56;;;-0.07;74.07
77043;BME280;65975;53.936;27.540;2023-02-07T04:50:10;100964.13;;;0.07;72.64
77043;BME280;65975;53.936;27.540;2023-02-07T04:52:35;100950.44;;;0.08;72.68
77043;BME280;65975;53.936;27.540;2023-02-07T04:55:01;100959.59;;;-0.19;71.09
77043;BME280;65975;53.936;27.540;2023-02-07T04:57:27;100965.59;;;-0.20;70.29
77043;BME280;65975;53.936;27.540;2023-02-07T04:59:52;100962.94;;;-0.22;69.86
77043;BME280;65975;53.936;27.540;2023-02-07T05:02:18;100969.97;;;-0.18;70.34
77043;BME280;65975;53.936;27.540;2023-02-07T05:04:43;100973.94;;;-0.05;69.70
77043;BME280;65975;53.936;27.540;2023-02-07T05:07:08;100965.59;;;-0.20;70.11
77043;BME280;65975;53.936;27.540;2023-02-07T05:09:34;100885.38;;;-0.71;69.97
77043;BME280;65975;53.936;27.540;2023-02-07T05:11:59;100920.50;;;-0.52;70.11
77043;BME280;65975;53.936;27.540;2023-02-07T05:14:25;100977.78;;;-0.16;70.41
77043;BME280;65975;53.936;27.540;2023-02-07T05:16:50;100981.97;;;0.03;69.58
77043;BME280;65975;53.936;27.540;2023-02-07T05:19:16;100969.81;;;-0.02;70.07
77043;BME280;65975;53.936;27.540;2023-02-07T05:21:41;100983.84;;;0.07;69.62
77043;BME280;65975;53.936;27.540;2023-02-07T05:24:07;100987.84;;;-0.02;69.47
77043;BME280;65975;53.936;27.540;2023-02-07T05:26:32;100904.00;;;-0.36;69.25
77043;BME280;65975;53.936;27.540;2023-02-07T05:28:58;100991.31;;;0.00;69.52
77043;BME280;65975;53.936;27.540;2023-02-07T05:31:23;101008.63;;;0.03;69.73
77043;BME280;65975;53.936;27.540;2023-02-07T05:34:08;100975.03;;;0.00;69.28
77043;BME280;65975;53.936;27.540;2023-02-07T05:36:34;100993.88;;;-0.01;69.36
77043;BME280;65975;53.936;27.540;2023-02-07T05:38:59;100991.66;;;-0.32;69.23
77043;BME280;65975;53.936;27.540;2023-02-07T05:41:25;101011.31;;;-0.15;70.68
77043;BME280;65975;53.936;27.540;2023-02-07T05:43:50;101034.03;;;-0.05;70.24
77043;BME280;65975;53.936;27.540;2023-02-07T05:46:16;100950.63;;;-0.69;70.04
77043;BME280;65975;53.936;27.540;2023-02-07T05:48:41;101019.13;;;-0.32;70.10
77043;BME280;65975;53.936;27.540;2023-02-07T05:51:06;101041.97;;;-0.19;70.72
77043;BME280;65975;53.936;27.540;2023-02-07T05:53:32;101047.34;;;-0.15;71.66
77043;BME280;65975;53.936;27.540;2023-02-07T05:55:57;101046.47;;;-0.15;71.56
77043;BME280;65975;53.936;27.540;2023-02-07T05:58:23;101045.72;;;-0.32;72.29
77043;BME280;65975;53.936;27.540;2023-02-07T06:00:48;101048.22;;;-0.14;72.70
77043;BME280;65975;53.936;27.540;2023-02-07T06:03:14;101052.06;;;-0.05;71.87
77043;BME280;65975;53.936;27.540;2023-02-07T06:05:39;100994.25;;;-0.32;71.82
77043;BME280;65975;53.936;27.540;2023-02-07T06:08:05;101062.69;;;0.03;72.53
77043;BME280;65975;53.936;27.540;2023-02-07T06:10:31;101079.13;;;0.07;72.24
77043;BME280;65975;53.936;27.540;2023-02-07T06:12:57;101075.91;;;0.11;72.34
77043;BME280;65975;53.936;27.540;2023-02-07T06:15:23;101065.06;;;-0.02;72.03
77043;BME280;65975;53.936;27.540;2023-02-07T06:17:48;101064.09;;;0.16;71.72
77043;BME280;65975;53.936;27.540;2023-02-07T06:20:14;101066.59;;;-0.07;72.50
77043;BME280;65975;53.936;27.540;2023-02-07T06:22:40;101077.91;;;0.18;71.27
77043;BME280;65975;53.936;27.540;2023-02-07T06:25:06;101086.91;;;0.27;72.01
77043;BME280;65975;53.936;27.540;2023-02-07T06:27:39;101086.53;;;0.18;71.97
77043;BME280;65975;53.936;27.540;2023-02-07T06:30:06;101079.25;;;-0.11;72.03
77043;BME280;65975;53.936;27.540;2023-02-07T06:32:32;101096.63;;;-0.06;72.31
77043;BME280;65975;53.936;27.540;2023-02-07T06:34:58;101089.00;;;-0.04;72.28
77043;BME280;65975;53.936;27.540;2023-02-07T06:37:23;100951.09;;;-0.58;71.64
77043;BME280;65975;53.936;27.540;2023-02-07T06:39:49;101089.22;;;0.42;71.61
77043;BME280;65975;53.936;27.540;2023-02-07T06:42:14;101085.09;;;0.25;72.00
77043;BME280;65975;53.936;27.540;2023-02-07T06:44:39;101075.84;;;0.30;72.10
77043;BME280;65975;53.936;27.540;2023-02-07T06:47:05;101061.66;;;0.19;72.11
77043;BME280;65975;53.936;27.540;2023-02-07T06:49:30;101099.16;;;0.12;71.77
77043;BME280;65975;53.936;27.540;2023-02-07T06:51:56;101100.91;;;-0.06;71.89
77043;BME280;65975;53.936;27.540;2023-02-07T06:54:21;101075.63;;;0.05;71.66
77043;BME280;65975;53.936;27.540;2023-02-07T06:56:47;101099.25;;;0.15;71.66
77043;BME280;65975;53.936;27.540;2023-02-07T06:59:12;101083.88;;;0.17;71.16
77043;BME280;65975;53.936;27.540;2023-02-07T07:01:38;101091.53;;;0.15;71.16
77043;BME280;65975;53.936;27.540;2023-02-07T07:04:04;101116.13;;;0.49;69.92
77043;BME280;65975;53.936;27.540;2023-02-07T07:06:29;100967.38;;;-0.38;70.12
77043;BME280;65975;53.936;27.540;2023-02-07T07:08:55;101100.84;;;0.53;69.26
77043;BME280;65975;53.936;27.540;2023-02-07T07:11:21;101094.22;;;0.58;69.65
77043;BME280;65975;53.936;27.540;2023-02-07T07:13:47;101086.72;;;0.64;69.34
77043;BME280;65975;53.936;27.540;2023-02-07T07:16:12;101094.94;;;0.76;68.06
77043;BME280;65975;53.936;27.540;2023-02-07T07:18:38;101101.72;;;0.95;68.06
77043;BME280;65975;53.936;27.540;2023-02-07T07:21:03;101082.81;;;0.74;67.47
77043;BME280;65975;53.936;27.540;2023-02-07T07:23:29;101105.91;;;0.93;68.39
77043;BME280;65975;53.936;27.540;2023-02-07T07:25:54;101111.25;;;0.98;68.23
77043;BME280;65975;53.936;27.540;2023-02-07T07:28:20;101098.09;;;1.12;67.84
77043;BME280;65975;53.936;27.540;2023-02-07T07:30:45;101081.91;;;0.94;68.20
77043;BME280;65975;53.936;27.540;2023-02-07T07:33:11;101092.06;;;0.91;67.02
77043;BME280;65975;53.936;27.540;2023-02-07T07:35:36;101109.94;;;1.07;67.48
77043;BME280;65975;53.936;27.540;2023-02-07T07:38:03;101118.66;;;1.11;67.37
77043;BME280;65975;53.936;27.540;2023-02-07T07:40:28;101133.78;;;1.02;67.24
77043;BME280;65975;53.936;27.540;2023-02-07T07:42:55;101115.81;;;0.83;67.60
77043;BME280;65975;53.936;27.540;2023-02-07T07:45:20;101129.06;;;0.92;67.01
77043;BME280;65975;53.936;27.540;2023-02-07T07:47:46;101147.69;;;0.85;68.01
77043;BME280;65975;53.936;27.540;2023-02-07T07:50:12;101159.56;;;1.02;67.37
77043;BME280;65975;53.936;27.540;2023-02-07T07:52:37;101149.38;;;1.05;67.45
77043;BME280;65975;53.936;27.540;2023-02-07T07:55:03;101144.22;;;1.05;66.89
77043;BME280;65975;53.936;27.540;2023-02-07T07:57:29;101166.38;;;1.00;67.04
77043;BME280;65975;53.936;27.540;2023-02-07T07:59:54;101143.31;;;0.82;67.50
77043;BME280;65975;53.936;27.540;2023-02-07T08:02:20;101164.66;;;1.00;67.40
77043;BME280;65975;53.936;27.540;2023-02-07T08:04:46;101160.56;;;0.85;68.08
77043;BME280;65975;53.936;27.540;2023-02-07T08:07:12;101172.91;;;0.92;66.95
77043;BME280;65975;53.936;27.540;2023-02-07T08:09:37;101164.28;;;0.91;67.05
77043;BME280;65975;53.936;27.540;2023-02-07T08:12:03;101161.22;;;0.58;68.21
77043;BME280;65975;53.936;27.540;2023-02-07T08:14:29;101156.81;;;0.76;67.95
77043;BME280;65975;53.936;27.540;2023-02-07T08:16:54;101159.91;;;0.89;67.93
77043;BME280;65975;53.936;27.540;2023-02-07T08:19:20;101159.34;;;0.96;67.62
77043;BME280;65975;53.936;27.540;2023-02-07T08:21:45;101171.91;;;1.09;67.54
77043;BME280;65975;53.936;27.540;2023-02-07T08:24:10;101152.91;;;1.07;66.05
77043;BME280;65975;53.936;27.540;2023-02-07T08:26:36;101161.75;;;1.13;66.62
77043;BME280;65975;53.936;27.540;2023-02-07T08:29:02;101164.03;;;1.49;65.83
77043;BME280;65975;53.936;27.540;2023-02-07T08:31:27;101173.09;;;1.39;65.80
77043;BME280;65975;53.936;27.540;2023-02-07T08:33:53;101157.44;;;1.35;65.52
77043;BME280;65975;53.936;27.540;2023-02-07T08:36:18;101171.25;;;1.14;66.05
77043;BME280;65975;53.936;27.540;2023-02-07T08:38:44;101177.38;;;1.16;66.13
77043;BME280;65975;53.936;27.540;2023-02-07T08:41:09;101169.56;;;1.37;65.20
77043;BME280;65975;53.936;27.540;2023-02-07T08:43:35;101184.00;;;1.32;65.26
77043;BME280;65975;53.936;27.540;2023-02-07T08:46:03;101108.25;;;0.87;65.19
77043;BME280;65975;53.936;27.540;2023-02-07T08:48:29;101190.75;;;1.29;65.00
77043;BME280;65975;53.936;27.540;2023-02-07T08:50:55;101173.16;;;1.41;64.33
77043;BME280;65975;53.936;27.540;2023-02-07T08:53:20;101189.81;;;1.27;64.34
77043;BME280;65975;53.936;27.540;2023-02-07T08:55:46;101195.03;;;1.28;65.51
77043;BME280;65975;53.936;27.540;2023-02-07T08:58:11;101192.56;;;1.31;65.47
77043;BME280;65975;53.936;27.540;2023-02-07T09:00:37;101187.97;;;1.24;65.35
77043;BME280;65975;53.936;27.540;2023-02-07T09:03:03;101186.59;;;1.32;65.39
77043;BME280;65975;53.936;27.540;2023-02-07T09:05:29;101163.84;;;1.22;64.49
77043;BME280;65975;53.936;27.540;2023-02-07T09:07:58;101182.91;;;1.48;64.37
77043;BME280;65975;53.936;27.540;2023-02-07T09:10:23;101197.63;;;1.50;63.88
77043;BME280;65975;53.936;27.540;2023-02-07T09:12:49;101126.78;;;1.42;64.25
77043;BME280;65975;53.936;27.540;2023-02-07T09:15:14;101126.50;;;1.58;63.31
77043;BME280;65975;53.936;27.540;2023-02-07T09:17:40;101186.91;;;1.62;64.04
77043;BME280;65975;53.936;27.540;2023-02-07T09:20:06;101197.19;;;1.84;63.03
77043;BME280;65975;53.936;27.540;2023-02-07T09:22:31;101090.34;;;1.35;63.28
77043;BME280;65975;53.936;27.540;2023-02-07T09:25:17;101203.75;;;1.75;62.78
77043;BME280;65975;53.936;27.540;2023-02-07T09:27:43;101189.72;;;1.68;62.91
77043;BME280;65975;53.936;27.540;2023-02-07T09:30:08;101175.66;;;1.84;62.39
77043;BME280;65975;53.936;27.540;2023-02-07T09:32:34;101198.63;;;1.54;63.49
77043;BME280;65975;53.936;27.540;2023-02-07T09:34:59;101189.09;;;1.97;62.63
77043;BME280;65975;53.936;27.540;2023-02-07T09:37:25;101192.72;;;2.03;62.56
77043;BME280;65975;53.936;27.540;2023-02-07T09:39:50;101196.13;;;2.01;62.13
77043;BME280;65975;53.936;27.540;2023-02-07T09:42:22;101192.44;;;2.42;61.34
77043;BME280;65975;53.936;27.540;2023-02-07T09:47:22;101200.91;;;2.15;61.54
77043;BME280;65975;53.936;27.540;2023-02-07T09:49:56;101196.09;;;2.00;62.17
77043;BME280;65975;53.936;27.540;2023-02-07T09:52:43;101211.53;;;1.98;61.67
77043;BME280;65975;53.936;27.540;2023-02-07T09:55:26;101206.19;;;1.94;61.54
77043;BME280;65975;53.936;27.540;2023-02-07T09:58:24;101205.00;;;1.86;62.15
77043;BME280;65975;53.936;27.540;2023-02-07T10:00:58;101189.97;;;1.76;62.57
77043;BME280;65975;53.936;27.540;2023-02-07T10:03:25;101212.78;;;2.10;61.76
77043;BME280;65975;53.936;27.540;2023-02-07T10:06:03;101208.28;;;2.28;61.92
77043;BME280;65975;53.936;27.540;2023-02-07T10:08:29;101219.78;;;2.36;61.11
77043;BME280;65975;53.936;27.540;2023-02-07T10:16:34;101222.03;;;2.51;59.95
77043;BME280;65975;53.936;27.540;2023-02-07T10:27:31;101232.75;;;2.14;61.42
77043;BME280;65975;53.936;27.540;2023-02-07T10:30:19;101241.34;;;2.36;60.97
77043;BME280;65975;53.936;27.540;2023-02-07T10:32:48;101253.00;;;2.25;61.52
77043;BME280;65975;53.936;27.540;2023-02-07T10:35:16;101251.22;;;2.00;62.55
77043;BME280;65975;53.936;27.540;2023-02-07T10:37:44;101258.56;;;2.36;61.11
77043;BME280;65975;53.936;27.540;2023-02-07T10:40:14;101257.78;;;1.92;62.14
77043;BME280;65975;53.936;27.540;2023-02-07T10:42:45;101251.91;;;1.96;62.68
77043;BME280;65975;53.936;27.540;2023-02-07T10:45:12;101256.09;;;1.50;63.32
77043;BME280;65975;53.936;27.540;2023-02-07T10:47:39;101250.91;;;1.93;63.93
77043;BME280;65975;53.936;27.540;2023-02-07T10:50:24;101134.47;;;0.98;63.62
77043;BME280;65975;53.936;27.540;2023-02-07T10:52:55;101268.81;;;1.88;63.12
77043;BME280;65975;53.936;27.540;2023-02-07T10:58:00;101288.41;;;1.83;65.30
77043;BME280;65975;53.936;27.540;2023-02-07T11:00:28;101290.53;;;1.71;65.50
77043;BME280;65975;53.936;27.540;2023-02-07T11:03:13;101294.75;;;1.69;66.07
77043;BME280;65975;53.936;27.540;2023-02-07T11:05:57;101293.69;;;1.64;65.92
77043;BME280;65975;53.936;27.540;2023-02-07T11:08:34;101288.97;;;1.75;66.54
77043;BME280;65975;53.936;27.540;2023-02-07T11:11:26;101286.59;;;2.03;65.92
77043;BME280;65975;53.936;27.540;2023-02-07T11:13:53;101294.81;;;1.71;66.97
77043;BME280;65975;53.936;27.540;2023-02-07T11:16:22;101292.06;;;1.45;67.13
77043;BME280;65975;53.936;27.540;2023-02-07T11:18:59;101293.72;;;1.86;66.18
77043;BME280;65975;53.936;27.540;2023-02-07T11:24:13;101281.84;;;1.91;66.95
77043;BME280;65975;53.936;27.540;2023-02-07T11:27:05;101290.19;;;2.07;67.05
77043;BME280;65975;53.936;27.540;2023-02-07T11:29:44;101286.91;;;2.57;65.66
77043;BME280;65975;53.936;27.540;2023-02-07T11:32:13;101286.13;;;2.59;65.62
77043;BME280;65975;53.936;27.540;2023-02-07T11:34:55;101292.16;;;2.36;64.31
77043;BME280;65975;53.936;27.540;2023-02-07T11:37:38;101284.75;;;2.45;63.96
77043;BME280;65975;53.936;27.540;2023-02-07T11:42:45;101285.78;;;2.98;62.65
77043;BME280;65975;53.936;27.540;2023-02-07T11:45:13;101239.41;;;2.55;62.79
77043;BME280;65975;53.936;27.540;2023-02-07T11:47:43;101278.41;;;2.61;62.86
77043;BME280;65975;53.936;27.540;2023-02-07T11:50:37;101286.22;;;2.62;62.94
77043;BME280;65975;53.936;27.540;2023-02-07T11:53:04;101286.53;;;2.95;62.51
77043;BME280;65975;53.936;27.540;2023-02-07T11:55:40;101293.78;;;3.05;62.17
77043;BME280;65975;53.936;27.540;2023-02-07T12:00:35;101264.94;;;2.95;62.29
77043;BME280;65975;53.936;27.540;2023-02-07T12:03:08;101279.53;;;3.18;62.06
77043;BME280;65975;53.936;27.540;2023-02-07T12:05:45;101276.84;;;3.40;60.86
77043;BME280;65975;53.936;27.540;2023-02-07T12:08:17;101278.88;;;3.24;60.76
77043;BME280;65975;53.936;27.540;2023-02-07T12:10:47;101299.28;;;3.14;61.73
77043;BME280;65975;53.936;27.540;2023-02-07T12:13:18;101291.03;;;3.26;60.45
77043;BME280;65975;53.936;27.540;2023-02-07T12:16:09;101273.81;;;3.01;61.25
77043;BME280;65975;53.936;27.540;2023-02-07T12:18:40;101282.84;;;2.89;62.39
77043;BME280;65975;53.936;27.540;2023-02-07T12:21:18;101295.75;;;3.12;61.97
77043;BME280;65975;53.936;27.540;2023-02-07T12:24:11;101290.75;;;2.92;62.63
77043;BME280;65975;53.936;27.540;2023-02-07T12:26:43;101294.38;;;2.98;62.17
77043;BME280;65975;53.936;27.540;2023-02-07T12:34:59;101300.41;;;2.97;62.19
77043;BME280;65975;53.936;27.540;2023-02-07T12:37:51;101293.09;;;2.86;62.59
77043;BME280;65975;53.936;27.540;2023-02-07T12:40:37;101305.19;;;2.87;61.90
77043;BME280;65975;53.936;27.540;2023-02-07T12:43:11;101286.94;;;2.82;62.03
77043;BME280;65975;53.936;27.540;2023-02-07T12:53:42;101238.56;;;2.08;62.36
77043;BME280;65975;53.936;27.540;2023-02-07T13:05:06;101314.91;;;2.68;62.04
77043;BME280;65975;53.936;27.540;2023-02-07T13:10:40;101314.22;;;2.50;61.69
77043;BME280;65975;53.936;27.540;2023-02-07T13:13:18;101321.75;;;2.44;62.05
77043;BME280;65975;53.936;27.540;2023-02-07T13:16:17;101314.47;;;2.56;62.11
77043;BME280;65975;53.936;27.540;2023-02-07T13:18:59;101294.75;;;2.36;62.48
77043;BME280;65975;53.936;27.540;2023-02-07T13:24:14;101322.94;;;2.76;62.10
77043;BME280;65975;53.936;27.540;2023-02-07T13:26:45;101326.66;;;2.60;61.30
77043;BME280;65975;53.936;27.540;2023-02-07T13:29:14;101326.72;;;2.62;62.06
77043;BME280;65975;53.936;27.540;2023-02-07T13:31:49;101320.41;;;2.77;61.41
77043;BME280;65975;53.936;27.540;2023-02-07T13:34:30;101259.38;;;2.35;61.23
77043;BME280;65975;53.936;27.540;2023-02-07T13:36:58;101340.00;;;2.71;61.73
77043;BME280;65975;53.936;27.540;2023-02-07T13:39:42;101330.41;;;2.68;62.02
77043;BME280;65975;53.936;27.540;2023-02-07T13:42:21;101340.59;;;2.64;61.45
77043;BME280;65975;53.936;27.540;2023-02-07T13:52:31;101336.47;;;2.69;62.14
77043;BME280;65975;53.936;27.540;2023-02-07T13:55:43;101337.22;;;2.66;62.18
77043;BME280;65975;53.936;27.540;2023-02-07T13:57:44;101203.44;;;1.67;61.86
77043;BME280;65975;53.936;27.540;2023-02-07T14:03:27;101348.50;;;2.45;63.15
77043;BME280;65975;53.936;27.540;2023-02-07T14:08:42;101332.94;;;2.43;62.84
77043;BME280;65975;53.936;27.540;2023-02-07T14:11:26;101359.50;;;2.39;64.21
77043;BME280;65975;53.936;27.540;2023-02-07T14:14:21;101366.59;;;2.22;64.47
77043;BME280;65975;53.936;27.540;2023-02-07T14:16:54;101360.09;;;2.32;64.30
77043;BME280;65975;53.936;27.540;2023-02-07T14:27:30;101243.09;;;1.47;64.21
77043;BME280;65975;53.936;27.540;2023-02-07T14:32:38;101390.31;;;2.34;64.11
77043;BME280;65975;53.936;27.540;2023-02-07T14:37:50;101396.97;;;2.28;64.52
77043;BME280;65975;53.936;27.540;2023-02-07T14:40:32;101401.16;;;2.04;64.80
77043;BME280;65975;53.936;27.540;2023-02-07T14:43:05;101401.56;;;1.92;65.30
77043;BME280;65975;53.936;27.540;2023-02-07T14:45:35;101398.25;;;1.94;65.38
77043;BME280;65975;53.936;27.540;2023-02-07T14:48:05;101399.22;;;1.98;64.72
77043;BME280;65975;53.936;27.540;2023-02-07T14:50:32;101409.94;;;2.07;64.98
77043;BME280;65975;53.936;27.540;2023-02-07T14:53:01;101414.34;;;1.89;65.52
77043;BME280;65975;53.936;27.540;2023-02-07T14:55:34;101415.69;;;2.00;65.01
77043;BME280;65975;53.936;27.540;2023-02-07T14:58:06;101330.47;;;1.58;65.35
77043;BME280;65975;53.936;27.540;2023-02-07T15:00:46;101406.59;;;1.89;65.81
77043;BME280;65975;53.936;27.540;2023-02-07T15:03:15;101417.88;;;1.70;65.92